createdAt,value
2023-02-14T00:02:05.861Z,61.15
2023-02-14T00:07:20.355Z,61.12
2023-02-14T00:09:54.470Z,60.83
2023-02-14T00:13:00.157Z,61.02
2023-02-14T00:15:27.024Z,61.14
2023-02-14T00:18:07.815Z,60.77
2023-02-14T00:20:38.738Z,61.01
2023-02-14T00:23:24.052Z,60.92
2023-02-14T00:25:50.821Z,60.81
2023-02-14T00:28:18.788Z,60.82
2023-02-14T00:30:47.669Z,60.79
2023-02-14T00:33:14.491Z,60.91
2023-02-14T00:35:41.257Z,60.86
2023-02-14T00:38:08.005Z,60.88
2023-02-14T00:40:34.747Z,60.90
2023-02-14T00:43:02.937Z,61.08
2023-02-14T00:45:48.073Z,60.96
2023-02-14T00:48:15.046Z,61.08
2023-02-14T00:50:45.639Z,60.85
2023-02-14T00:53:13.236Z,60.88
2023-02-14T00:55:40.169Z,60.95
2023-02-14T00:58:06.937Z,61.04
2023-02-14T01:00:45.650Z,60.71
2023-02-14T01:03:13.856Z,60.99
2023-02-14T01:05:44.272Z,61.07
2023-02-14T01:08:14.270Z,60.99
2023-02-14T01:10:41.848Z,60.80
2023-02-14T01:13:16.561Z,61.02
2023-02-14T01:15:47.959Z,60.73
2023-02-14T01:18:15.988Z,61.04
2023-02-14T01:20:42.944Z,61.10
2023-02-14T01:23:10.537Z,61.28
2023-02-14T01:25:39.234Z,60.97
2023-02-14T01:28:15.097Z,61.17
2023-02-14T01:30:43.421Z,61.26
2023-02-14T01:33:10.410Z,61.08
2023-02-14T01:35:40.516Z,61.12
2023-02-14T01:38:08.014Z,60.92
2023-02-14T01:40:43.791Z,60.95
2023-02-14T01:43:20.833Z,60.91
2023-02-14T01:45:47.762Z,60.90
2023-02-14T01:48:15.654Z,61.34
2023-02-14T01:50:45.340Z,61.17
2023-02-14T01:53:28.900Z,61.29
2023-02-14T01:56:05.970Z,60.78
2023-02-14T01:58:36.449Z,61.00
2023-02-14T02:01:06.453Z,60.96
2023-02-14T02:03:45.924Z,61.13
2023-02-14T02:06:30.031Z,61.08
2023-02-14T02:09:55.337Z,61.19
2023-02-14T02:12:36.717Z,61.00
2023-02-14T02:16:05.527Z,60.77
2023-02-14T02:19:01.803Z,61.08
2023-02-14T02:22:36.012Z,61.46
2023-02-14T02:26:05.163Z,61.18
2023-02-14T02:29:52.298Z,61.53
2023-02-14T02:33:28.580Z,61.88
2023-02-14T02:40:30.953Z,61.89
2023-02-14T02:43:39.001Z,61.33
2023-02-14T02:47:03.172Z,62.09
2023-02-14T02:50:39.969Z,61.35
2023-02-14T02:53:35.669Z,61.58
2023-02-14T02:56:52.791Z,62.27
2023-02-14T03:00:06.895Z,61.79
2023-02-14T03:03:24.652Z,62.03
2023-02-14T03:06:20.857Z,62.00
2023-02-14T03:09:38.345Z,61.62
2023-02-14T03:12:44.173Z,61.81
2023-02-14T03:24:55.506Z,62.39
2023-02-14T03:28:13.110Z,62.06
2023-02-14T03:31:03.834Z,62.61
2023-02-14T03:37:20.551Z,62.02
2023-02-14T03:40:10.720Z,62.34
2023-02-14T03:42:52.504Z,62.12
2023-02-14T03:45:33.707Z,62.36
2023-02-14T03:48:06.872Z,62.27
2023-02-14T03:50:36.626Z,62.38
2023-02-14T03:53:05.489Z,61.97
2023-02-14T03:56:05.038Z,62.29
2023-02-14T03:59:06.010Z,61.78
2023-02-14T04:02:16.783Z,62.30
2023-02-14T04:04:46.837Z,61.96
2023-02-14T04:07:20.865Z,62.07
2023-02-14T04:09:48.141Z,62.28
2023-02-14T04:12:18.221Z,62.35
2023-02-14T04:14:47.066Z,62.69
2023-02-14T04:17:34.833Z,62.33
2023-02-14T04:20:01.750Z,62.17
2023-02-14T04:22:28.715Z,61.89
2023-02-14T04:24:55.516Z,62.28
2023-02-14T04:27:22.338Z,61.81
2023-02-14T04:29:52.543Z,62.01
2023-02-14T04:32:22.118Z,62.59
2023-02-14T04:34:53.907Z,62.02
2023-02-14T04:37:20.814Z,62.31
2023-02-14T04:39:47.685Z,61.93
2023-02-14T04:42:16.861Z,62.42
2023-02-14T04:44:43.815Z,62.21
2023-02-14T04:47:10.774Z,62.23
2023-02-14T04:49:37.682Z,62.55
2023-02-14T04:52:05.663Z,62.09
2023-02-14T04:54:33.084Z,62.69
2023-02-14T04:57:00.267Z,62.18
2023-02-14T04:59:27.084Z,62.09
2023-02-14T05:01:54.374Z,62.62
2023-02-14T05:04:21.268Z,62.51
2023-02-14T05:06:48.125Z,62.24
2023-02-14T05:09:14.908Z,62.52
2023-02-14T05:11:41.688Z,62.06
2023-02-14T05:14:08.713Z,62.27
2023-02-14T05:16:35.556Z,62.21
2023-02-14T05:19:02.374Z,62.11
2023-02-14T05:21:32.913Z,62.41
2023-02-14T05:24:00.747Z,62.69
2023-02-14T05:26:28.263Z,62.04
2023-02-14T05:28:55.018Z,62.79
2023-02-14T05:31:21.911Z,62.01
2023-02-14T05:33:49.083Z,62.31
2023-02-14T05:36:15.870Z,62.61
2023-02-14T05:38:42.641Z,62.52
2023-02-14T05:41:09.431Z,62.37
2023-02-14T05:43:36.227Z,62.30
2023-02-14T05:46:03.082Z,62.06
2023-02-14T05:48:29.971Z,62.44
2023-02-14T05:50:56.741Z,62.48
2023-02-14T05:53:23.549Z,62.39
2023-02-14T05:55:50.335Z,62.29
2023-02-14T05:58:17.085Z,62.92
2023-02-14T06:00:43.835Z,62.82
2023-02-14T06:03:10.604Z,62.65
2023-02-14T06:05:37.343Z,62.96
2023-02-14T06:08:04.178Z,62.93
2023-02-14T06:10:31.023Z,63.51
2023-02-14T06:12:58.028Z,63.29
2023-02-14T06:15:24.896Z,63.59
2023-02-14T06:17:56.531Z,63.81
2023-02-14T06:20:24.624Z,63.54
2023-02-14T06:22:58.847Z,63.96
2023-02-14T06:25:26.010Z,64.01
2023-02-14T06:27:57.235Z,64.16
2023-02-14T06:30:24.865Z,63.64
2023-02-14T06:32:51.737Z,64.22
2023-02-14T06:35:18.673Z,63.74
2023-02-14T06:37:45.625Z,63.83
2023-02-14T06:40:13.459Z,63.96
2023-02-14T06:42:40.266Z,63.99
2023-02-14T06:45:08.175Z,64.02
2023-02-14T06:47:35.338Z,63.86
2023-02-14T06:50:04.997Z,64.20
2023-02-14T06:52:33.269Z,64.35
2023-02-14T06:55:00.110Z,63.87
2023-02-14T06:57:26.953Z,64.37
2023-02-14T06:59:53.721Z,64.07
2023-02-14T07:02:22.312Z,64.16
2023-02-14T07:04:51.847Z,64.08
2023-02-14T07:07:18.651Z,64.32
2023-02-14T07:09:45.445Z,64.11
2023-02-14T07:12:12.257Z,64.07
2023-02-14T07:14:39.077Z,64.54
2023-02-14T07:17:05.881Z,63.97
2023-02-14T07:19:35.858Z,64.36
2023-02-14T07:22:02.821Z,63.86
2023-02-14T07:24:29.622Z,64.00
2023-02-14T07:26:56.448Z,64.11
2023-02-14T07:29:23.242Z,64.16
2023-02-14T07:31:50.162Z,64.24
2023-02-14T07:34:17.040Z,64.07
2023-02-14T07:36:44.124Z,64.11
2023-02-14T07:39:11.473Z,64.37
2023-02-14T07:41:38.575Z,64.02
2023-02-14T07:44:05.366Z,64.02
2023-02-14T07:46:32.204Z,64.31
2023-02-14T07:48:59.044Z,64.05
2023-02-14T07:51:25.860Z,64.48
2023-02-14T07:53:52.707Z,64.10
2023-02-14T07:56:19.615Z,64.34
2023-02-14T07:58:46.709Z,64.28
2023-02-14T08:01:13.556Z,64.08
2023-02-14T08:03:40.341Z,64.04
2023-02-14T08:06:07.168Z,63.95
2023-02-14T08:08:34.044Z,64.17
2023-02-14T08:11:01.696Z,64.04
2023-02-14T08:13:28.969Z,63.98
2023-02-14T08:16:04.433Z,64.09
2023-02-14T08:18:45.914Z,64.41
2023-02-14T08:21:15.761Z,64.17
2023-02-14T08:23:42.816Z,64.14
2023-02-14T08:26:09.780Z,64.38
2023-02-14T08:28:36.682Z,64.36
2023-02-14T08:31:04.870Z,64.62
2023-02-14T08:33:31.828Z,64.79
2023-02-14T08:35:58.638Z,64.49
2023-02-14T08:38:25.494Z,64.55
2023-02-14T08:40:52.622Z,64.67
2023-02-14T08:43:19.617Z,64.49
2023-02-14T08:45:48.414Z,64.69
2023-02-14T08:48:15.365Z,65.04
2023-02-14T08:50:42.685Z,65.00
2023-02-14T08:53:12.625Z,65.33
2023-02-14T08:55:40.310Z,65.38
2023-02-14T08:58:08.170Z,66.05
2023-02-14T09:00:35.147Z,65.77
2023-02-14T09:03:02.057Z,65.77
2023-02-14T09:05:28.976Z,65.68
2023-02-14T09:07:56.394Z,65.90
2023-02-14T09:10:24.639Z,65.94
2023-02-14T09:12:51.513Z,66.06
2023-02-14T09:15:18.600Z,66.04
2023-02-14T09:17:45.519Z,66.28
2023-02-14T09:20:14.763Z,66.49
2023-02-14T09:22:41.697Z,66.23
2023-02-14T09:25:08.515Z,66.17
2023-02-14T09:27:35.763Z,66.36
2023-02-14T09:30:02.721Z,66.38
2023-02-14T09:32:30.011Z,66.15
2023-02-14T09:34:56.948Z,66.17
2023-02-14T09:37:42.142Z,66.61
2023-02-14T09:40:13.268Z,66.14
2023-02-14T09:42:50.977Z,66.50
2023-02-14T09:45:23.235Z,66.68
2023-02-14T09:48:21.595Z,66.65
2023-02-14T09:50:57.154Z,67.08
2023-02-14T09:53:33.154Z,67.05
2023-02-14T09:56:28.503Z,67.14
2023-02-14T09:59:45.925Z,66.96
2023-02-14T10:02:53.851Z,66.86
2023-02-14T10:05:37.568Z,66.98
2023-02-14T10:08:48.280Z,66.60
2023-02-14T10:11:22.834Z,66.87
2023-02-14T10:13:54.966Z,66.75
2023-02-14T10:16:33.996Z,66.74
2023-02-14T10:19:04.361Z,66.86
2023-02-14T10:21:41.247Z,66.72
2023-02-14T10:24:25.972Z,66.55
2023-02-14T10:27:02.007Z,66.72
2023-02-14T10:29:28.818Z,66.79
2023-02-14T10:32:00.547Z,66.64
2023-02-14T10:34:51.422Z,66.35
2023-02-14T10:37:46.316Z,66.44
2023-02-14T10:40:40.046Z,66.77
2023-02-14T10:43:23.125Z,66.86
2023-02-14T10:46:27.622Z,66.67
2023-02-14T10:49:21.890Z,66.72
2023-02-14T10:52:24.796Z,66.88
2023-02-14T10:54:57.143Z,66.41
2023-02-14T10:57:33.927Z,66.32
2023-02-14T11:00:26.985Z,66.41
2023-02-14T11:03:05.796Z,66.05
2023-02-14T11:05:46.892Z,66.24
2023-02-14T11:08:35.482Z,65.90
2023-02-14T11:11:28.305Z,65.93
2023-02-14T11:13:55.228Z,65.83
2023-02-14T11:16:35.495Z,66.06
2023-02-14T11:19:37.225Z,65.87
2023-02-14T11:22:04.679Z,65.76
2023-02-14T11:24:47.189Z,65.90
2023-02-14T11:27:13.844Z,65.57
2023-02-14T11:29:48.154Z,65.67
2023-02-14T11:32:30.504Z,65.52
2023-02-14T11:35:07.201Z,65.20
2023-02-14T11:37:50.182Z,65.29
2023-02-14T11:40:38.244Z,65.38
2023-02-14T11:43:14.394Z,65.38
2023-02-14T11:45:44.278Z,65.26
2023-02-14T11:48:39.507Z,65.16
2023-02-14T11:51:16.033Z,65.16
2023-02-14T11:53:53.794Z,64.89
2023-02-14T11:56:23.187Z,64.82
2023-02-14T11:58:59.994Z,64.83
2023-02-14T12:01:33.197Z,64.89
2023-02-14T12:04:26.622Z,64.58
2023-02-14T12:06:55.064Z,64.89
2023-02-14T12:09:26.216Z,64.51
2023-02-14T12:12:00.005Z,64.59
2023-02-14T12:14:34.080Z,64.90
2023-02-14T12:17:29.009Z,64.57
2023-02-14T12:20:12.340Z,64.65
2023-02-14T12:22:50.327Z,64.59
2023-02-14T12:25:21.365Z,64.34
2023-02-14T12:27:56.657Z,64.35
2023-02-14T12:30:25.837Z,64.60
2023-02-14T12:32:56.193Z,64.24
2023-02-14T12:35:44.153Z,64.02
2023-02-14T12:38:31.993Z,64.08
2023-02-14T12:41:20.097Z,64.02
2023-02-14T12:43:57.427Z,63.91
2023-02-14T12:47:13.058Z,63.92
2023-02-14T12:49:52.353Z,64.90
2023-02-14T12:52:49.241Z,64.20
2023-02-14T12:55:34.633Z,64.26
2023-02-14T12:58:43.625Z,64.12
2023-02-14T13:02:09.905Z,64.10
2023-02-14T13:04:49.952Z,64.05
2023-02-14T13:07:47.810Z,63.93
2023-02-14T13:10:44.566Z,63.88
2023-02-14T13:13:33.546Z,63.73
2023-02-14T13:19:38.814Z,63.67
2023-02-14T13:22:12.857Z,63.54
2023-02-14T13:25:00.041Z,63.23
2023-02-14T13:27:33.183Z,63.20
2023-02-14T13:30:05.593Z,62.81
2023-02-14T13:32:40.036Z,62.61
2023-02-14T13:35:08.200Z,62.52
2023-02-14T13:37:36.708Z,62.97
2023-02-14T13:40:16.398Z,62.52
2023-02-14T13:42:49.872Z,62.56
2023-02-14T13:45:40.598Z,62.56
2023-02-14T13:48:12.028Z,62.57
2023-02-14T13:51:01.316Z,62.27
2023-02-14T13:53:35.526Z,62.06
2023-02-14T13:56:33.434Z,62.25
2023-02-14T13:59:05.263Z,62.30
2023-02-14T14:01:51.441Z,62.17
2023-02-14T14:04:31.767Z,61.99
2023-02-14T14:07:04.986Z,61.90
2023-02-14T14:09:47.512Z,61.86
2023-02-14T14:12:26.115Z,61.67
2023-02-14T14:15:05.531Z,61.71
2023-02-14T14:17:50.262Z,61.69
2023-02-14T14:20:18.549Z,61.48
2023-02-14T14:23:01.134Z,61.26
2023-02-14T14:25:36.230Z,61.36
2023-02-14T14:28:18.754Z,61.07
2023-02-14T14:30:45.832Z,61.41
2023-02-14T14:33:33.446Z,61.23
2023-02-14T14:36:11.067Z,60.92
2023-02-14T14:39:02.102Z,61.00
2023-02-14T14:41:32.960Z,61.05
2023-02-14T14:44:00.247Z,60.76
2023-02-14T14:46:27.252Z,60.73
2023-02-14T14:48:55.993Z,60.52
2023-02-14T14:51:35.488Z,60.57
2023-02-14T14:54:08.015Z,60.51
2023-02-14T14:56:39.679Z,60.54
2023-02-14T14:59:22.456Z,60.50
2023-02-14T15:01:54.145Z,60.35
2023-02-14T15:04:35.285Z,60.48
2023-02-14T15:07:33.072Z,60.39
2023-02-14T15:10:01.160Z,60.47
2023-02-14T15:12:47.989Z,60.42
2023-02-14T15:15:17.953Z,60.54
2023-02-14T15:17:46.079Z,60.49
2023-02-14T15:20:23.724Z,60.34
2023-02-14T15:22:52.848Z,60.23
2023-02-14T15:25:44.481Z,60.18
2023-02-14T15:28:32.253Z,60.37
2023-02-14T15:31:05.931Z,60.18
2023-02-14T15:33:33.812Z,60.32
2023-02-14T15:36:08.759Z,60.12
2023-02-14T15:38:40.355Z,60.14
2023-02-14T15:41:08.191Z,60.24
2023-02-14T15:43:37.558Z,60.13
2023-02-14T15:46:37.105Z,60.24
2023-02-14T15:49:16.683Z,60.44
2023-02-14T15:51:43.952Z,60.38
2023-02-14T15:54:47.294Z,60.38
2023-02-14T15:57:30.077Z,60.31
2023-02-14T15:59:57.008Z,60.35
2023-02-14T16:02:40.606Z,60.27
2023-02-14T16:05:19.663Z,60.27
2023-02-14T16:08:27.341Z,60.27
2023-02-14T16:11:26.058Z,60.34
2023-02-14T16:13:53.259Z,60.14
2023-02-14T16:16:20.005Z,60.28
2023-02-14T16:18:50.479Z,60.08
2023-02-14T16:21:27.679Z,60.06
2023-02-14T16:24:06.749Z,60.03
2023-02-14T16:26:38.047Z,60.13
2023-02-14T16:29:11.671Z,60.15
2023-02-14T16:32:01.184Z,60.21
2023-02-14T16:34:30.649Z,60.25
2023-02-14T16:36:57.441Z,60.25
2023-02-14T16:39:26.185Z,60.45
2023-02-14T16:41:56.315Z,60.11
2023-02-14T16:44:23.109Z,60.54
2023-02-14T16:46:49.872Z,60.34
2023-02-14T16:49:16.752Z,60.46
2023-02-14T16:51:46.878Z,60.37
2023-02-14T16:54:19.883Z,60.63
2023-02-14T16:56:58.382Z,60.43
2023-02-14T16:59:25.208Z,60.40
2023-02-14T17:01:52.061Z,60.83
2023-02-14T17:04:18.878Z,60.76
2023-02-14T17:06:53.956Z,60.54
2023-02-14T17:09:27.459Z,60.72
2023-02-14T17:11:58.525Z,60.91
2023-02-14T17:14:30.367Z,60.60
2023-02-14T17:16:58.076Z,60.79
2023-02-14T17:19:25.229Z,60.82
2023-02-14T17:21:52.659Z,60.51
2023-02-14T17:24:19.426Z,61.01
2023-02-14T17:26:46.197Z,60.63
2023-02-14T17:29:13.369Z,60.92
2023-02-14T17:31:40.331Z,60.87
2023-02-14T17:34:07.281Z,60.83
2023-02-14T17:36:34.142Z,61.23
2023-02-14T17:39:03.323Z,60.82
2023-02-14T17:41:30.305Z,61.03
2023-02-14T17:44:00.300Z,60.95
2023-02-14T17:46:29.434Z,61.05
2023-02-14T17:48:57.600Z,61.24
2023-02-14T17:51:24.990Z,61.36
2023-02-14T17:53:51.799Z,61.38
2023-02-14T17:56:22.532Z,61.48
2023-02-14T17:58:51.406Z,61.20
2023-02-14T18:01:21.570Z,61.21
2023-02-14T18:03:48.739Z,61.74
2023-02-14T18:06:15.789Z,61.29
2023-02-14T18:08:46.194Z,61.59
2023-02-14T18:11:14.061Z,61.38
2023-02-14T18:13:41.328Z,61.43
2023-02-14T18:16:15.872Z,61.38
2023-02-14T18:18:42.951Z,61.34
2023-02-14T18:21:12.938Z,61.39
2023-02-14T18:23:39.972Z,61.45
2023-02-14T18:26:11.810Z,61.59
2023-02-14T18:28:38.942Z,61.51
2023-02-14T18:31:10.701Z,61.77
2023-02-14T18:33:38.511Z,61.46
2023-02-14T18:36:15.511Z,61.33
2023-02-14T18:38:45.495Z,61.44
2023-02-14T18:41:16.853Z,61.32
2023-02-14T18:43:44.966Z,61.57
2023-02-14T18:46:15.836Z,61.42
2023-02-14T18:48:42.883Z,61.46
2023-02-14T19:13:33.996Z,62.20
2023-02-14T19:16:00.830Z,61.90
2023-02-14T19:18:27.644Z,62.27
2023-02-14T19:20:54.449Z,62.05
2023-02-14T19:23:21.612Z,61.87
2023-02-14T19:25:48.530Z,61.88
2023-02-14T19:28:15.601Z,62.01
2023-02-14T19:30:42.432Z,62.14
2023-02-14T19:33:09.220Z,62.01
2023-02-14T19:35:35.996Z,62.11
2023-02-14T19:38:03.452Z,62.47
2023-02-14T19:40:30.907Z,62.05
2023-02-14T19:42:58.060Z,62.25
2023-02-14T19:45:24.974Z,62.09
2023-02-14T19:47:51.982Z,62.22
2023-02-14T19:50:20.423Z,62.02
2023-02-14T19:52:48.775Z,62.10
2023-02-14T19:55:22.146Z,62.09
2023-02-14T19:57:49.021Z,62.15
2023-02-14T20:00:16.935Z,62.43
2023-02-14T20:02:47.966Z,62.00
2023-02-14T20:05:16.569Z,62.09
2023-02-14T20:07:43.891Z,61.89
2023-02-14T20:10:12.254Z,62.34
2023-02-14T20:12:39.259Z,62.22
2023-02-14T20:15:09.209Z,62.10
2023-02-14T20:17:37.475Z,62.15
2023-02-14T20:20:08.372Z,61.89
2023-02-14T20:22:36.249Z,62.32
2023-02-14T20:25:03.077Z,62.16
2023-02-14T20:27:29.868Z,61.87
2023-02-14T20:29:56.772Z,61.91
2023-02-14T20:32:23.589Z,61.70
2023-02-14T20:34:51.748Z,61.68
2023-02-14T20:37:18.585Z,62.01
2023-02-14T20:39:45.465Z,61.98
2023-02-14T20:42:12.236Z,61.65
2023-02-14T20:44:39.070Z,61.83
2023-02-14T20:47:06.791Z,61.82
2023-02-14T20:49:35.589Z,62.08
2023-02-14T20:52:02.703Z,62.00
2023-02-14T20:54:30.367Z,61.96
2023-02-14T20:56:57.858Z,61.66
2023-02-14T20:59:28.508Z,61.81
2023-02-14T21:01:57.495Z,61.81
2023-02-14T21:04:25.221Z,61.84
2023-02-14T21:06:52.053Z,61.85
2023-02-14T21:09:20.632Z,61.71
2023-02-14T21:11:47.488Z,61.90
2023-02-14T21:14:14.506Z,61.67
2023-02-14T21:16:41.323Z,62.06
2023-02-14T21:19:08.173Z,62.00
2023-02-14T21:21:39.340Z,61.72
2023-02-14T21:24:15.536Z,61.77
2023-02-14T21:26:43.329Z,61.73
2023-02-14T21:29:10.432Z,61.60
2023-02-14T21:31:37.724Z,61.66
2023-02-14T21:34:04.784Z,61.76
2023-02-14T21:36:35.472Z,61.73
2023-02-14T21:39:04.547Z,61.77
2023-02-14T21:41:32.049Z,61.76
2023-02-14T21:44:00.809Z,61.86
2023-02-14T21:46:35.770Z,61.80
2023-02-14T21:49:24.454Z,61.75
2023-02-14T21:51:51.418Z,61.63
2023-02-14T21:54:18.247Z,61.48
2023-02-14T21:56:45.305Z,61.67
2023-02-14T21:59:12.561Z,61.42
2023-02-14T22:01:41.364Z,61.56
2023-02-14T22:04:12.130Z,61.20
2023-02-14T22:06:41.517Z,61.20
2023-02-14T22:09:13.974Z,61.37
2023-02-14T22:11:40.918Z,61.35
2023-02-14T22:14:07.851Z,61.37
2023-02-14T22:16:36.701Z,61.34
2023-02-14T22:19:05.408Z,61.18
2023-02-14T22:21:33.405Z,61.05
2023-02-14T22:24:01.329Z,60.96
2023-02-14T22:26:35.408Z,60.55
2023-02-14T22:29:02.420Z,60.91
2023-02-14T22:31:35.257Z,60.95
2023-02-14T22:34:03.916Z,61.13
2023-02-14T22:36:30.937Z,61.02
2023-02-14T22:38:57.772Z,60.89
2023-02-14T22:41:25.648Z,60.99
2023-02-14T22:43:53.839Z,60.72
2023-02-14T22:46:24.900Z,60.84
2023-02-14T22:48:53.061Z,60.57
2023-02-14T22:51:21.361Z,60.86
2023-02-14T22:53:49.450Z,60.90
2023-02-14T22:56:24.396Z,61.02
2023-02-14T22:59:00.919Z,60.87
2023-02-14T23:01:28.530Z,60.85
2023-02-14T23:03:57.950Z,60.78
2023-02-14T23:06:28.332Z,60.95
2023-02-14T23:08:56.172Z,60.97
2023-02-14T23:11:30.534Z,60.85
2023-02-14T23:14:16.393Z,60.71
2023-02-14T23:17:02.485Z,61.04
2023-02-14T23:19:51.269Z,61.11
2023-02-14T23:22:26.486Z,60.85
2023-02-14T23:24:59.561Z,61.09
2023-02-14T23:27:37.182Z,61.46
2023-02-14T23:30:11.411Z,61.28
2023-02-14T23:32:38.308Z,61.03
2023-02-14T23:35:05.992Z,61.11
2023-02-14T23:37:33.478Z,61.18
2023-02-14T23:40:00.266Z,60.81
2023-02-14T23:42:28.105Z,61.24
2023-02-14T23:45:14.896Z,61.13
2023-02-14T23:47:41.663Z,61.03
2023-02-14T23:50:09.001Z,61.18
2023-02-14T23:52:38.284Z,61.18
2023-02-14T23:55:06.239Z,61.32
2023-02-14T23:57:32.995Z,61.10
